Time;durP1;ratioP1;P1;durP2;ratioP2;P2;SDS_P1;SDS_P2;PMS_P1;PMS_P2;Temp;Humidity;BMP_temperature;BMP_pressure;BME280_temperature;BME280_humidity;BME280_pressure;Samples;Min_cycle;Max_cycle;Signal;HPM_P1;HPM_P2
2022/04/03 00:01:34;;;;;;;4.63;2.92;;;1.40;99.90;;;;;;5011196;28;20882;-67
2022/04/03 00:03:59;;;;;;;3.53;2.03;;;1.40;99.90;;;;;;5004763;28;20794;-68
2022/04/03 00:06:25;;;;;;;2.72;2.40;;;1.40;99.90;;;;;;4997515;28;20556;-69
2022/04/03 00:08:50;;;;;;;3.28;2.33;;;1.40;99.90;;;;;;4999269;28;20041;-68
2022/04/03 00:11:16;;;;;;;2.25;1.50;;;1.30;99.90;;;;;;4998323;28;20049;-68
2022/04/03 00:13:42;;;;;;;2.85;2.00;;;1.40;99.90;;;;;;5016028;28;20045;-68
2022/04/03 00:16:07;;;;;;;5.97;2.42;;;1.40;99.90;;;;;;5006272;28;20049;-68
2022/04/03 00:18:33;;;;;;;2.75;2.25;;;1.30;99.90;;;;;;5016886;28;20041;-68
2022/04/03 00:21:00;;;;;;;5.55;2.35;;;1.30;99.90;;;;;;5019830;28;20049;-68
2022/04/03 00:23:27;;;;;;;2.97;2.67;;;1.20;99.90;;;;;;5001667;28;20064;-68
2022/04/03 00:25:52;;;;;;;2.58;2.38;;;1.20;99.90;;;;;;5020036;28;20053;-68
2022/04/03 00:28:19;;;;;;;3.65;2.25;;;1.10;99.90;;;;;;5019320;28;20095;-68
2022/04/03 00:30:45;;;;;;;6.20;2.50;;;1.00;99.90;;;;;;5019296;28;20080;-68
2022/04/03 00:33:11;;;;;;;2.50;2.20;;;1.00;99.90;;;;;;5001463;28;20640;-68
2022/04/03 00:35:37;;;;;;;2.45;2.25;;;1.00;99.90;;;;;;5001769;28;20080;-68
2022/04/03 00:38:03;;;;;;;3.63;2.33;;;1.00;99.90;;;;;;5016083;28;20045;-68
2022/04/03 00:40:29;;;;;;;2.38;1.75;;;0.90;99.90;;;;;;5019452;28;20045;-68
2022/04/03 00:42:55;;;;;;;3.58;1.98;;;0.90;99.90;;;;;;5011745;28;20850;-68
2022/04/03 00:45:22;;;;;;;2.30;2.03;;;0.90;99.90;;;;;;5008092;28;20038;-68
2022/04/03 00:47:50;;;;;;;1.65;1.55;;;0.90;99.90;;;;;;5000924;28;20042;-68
2022/04/03 00:50:17;;;;;;;3.25;2.42;;;0.90;99.90;;;;;;5001610;28;20145;-68
2022/04/03 00:52:43;;;;;;;2.10;1.90;;;0.80;99.90;;;;;;5012951;28;20057;-67
2022/04/03 00:55:09;;;;;;;2.42;2.22;;;0.90;99.90;;;;;;5038115;28;20816;-68
2022/04/03 00:57:35;;;;;;;3.67;2.03;;;0.90;99.90;;;;;;5038574;28;20049;-68
2022/04/03 01:00:01;;;;;;;2.65;2.10;;;0.90;99.90;;;;;;5016745;28;20041;-68
2022/04/03 01:02:27;;;;;;;4.45;2.55;;;0.80;99.90;;;;;;4981481;28;20181;-68
2022/04/03 01:04:52;;;;;;;2.25;2.05;;;0.90;99.90;;;;;;4998844;28;20084;-68
2022/04/03 01:07:19;;;;;;;2.97;2.15;;;0.80;99.90;;;;;;5012235;28;20037;-68
2022/04/03 01:09:44;;;;;;;5.65;2.50;;;0.80;99.90;;;;;;5020691;28;20057;-68
2022/04/03 01:12:10;;;;;;;3.75;2.20;;;0.90;99.90;;;;;;4984705;28;20088;-68
2022/04/03 01:14:40;;;;;;;2.17;2.00;;;1.00;99.90;;;;;;4999202;28;20814;-68
2022/04/03 01:17:09;;;;;;;2.53;2.00;;;1.00;99.90;;;;;;5001372;28;20049;-67
2022/04/03 01:19:35;;;;;;;3.63;1.83;;;1.00;99.90;;;;;;5018294;28;20045;-69
2022/04/03 01:22:01;;;;;;;2.80;1.70;;;1.00;99.90;;;;;;5001743;28;20099;-69
2022/04/03 01:24:27;;;;;;;2.33;2.13;;;1.00;99.90;;;;;;5003553;28;20040;-69
2022/04/03 01:26:53;;;;;;;2.42;1.77;;;1.10;99.90;;;;;;4998491;28;20084;-69
2022/04/03 01:29:19;;;;;;;2.85;1.85;;;1.10;99.90;;;;;;4979992;28;20046;-69
2022/04/03 01:31:46;;;;;;;2.50;1.70;;;1.10;99.90;;;;;;4999316;28;20144;-69
2022/04/03 01:34:13;;;;;;;3.03;2.05;;;1.10;99.90;;;;;;4980155;28;20046;-69
2022/04/03 01:36:38;;;;;;;4.07;2.47;;;1.10;99.90;;;;;;4987016;28;20060;-69
2022/04/03 01:39:04;;;;;;;1.83;1.60;;;1.10;99.90;;;;;;5036038;28;20051;-69
2022/04/03 01:41:30;;;;;;;3.28;2.08;;;1.10;99.90;;;;;;5020068;28;20045;-69
2022/04/03 01:43:56;;;;;;;1.95;1.58;;;1.10;99.90;;;;;;5020534;28;20186;-69
2022/04/03 01:46:21;;;;;;;2.45;2.25;;;1.10;99.90;;;;;;5020257;28;20056;-69
2022/04/03 01:48:47;;;;;;;3.53;2.33;;;1.00;99.90;;;;;;5020570;28;20590;-69
2022/04/03 01:51:12;;;;;;;2.88;2.13;;;1.00;99.90;;;;;;5017718;28;20562;-69
2022/04/03 01:53:38;;;;;;;3.60;2.38;;;0.90;99.90;;;;;;5016946;28;20523;-69
2022/04/03 01:56:06;;;;;;;3.78;2.38;;;1.00;99.90;;;;;;5017647;28;20034;-69
2022/04/03 01:58:33;;;;;;;2.83;2.35;;;0.90;99.90;;;;;;5017943;28;20049;-69
2022/04/03 02:00:58;;;;;;;3.65;2.33;;;0.80;99.90;;;;;;5017734;28;20096;-69
2022/04/03 02:03:25;;;;;;;4.72;1.83;;;0.80;99.90;;;;;;5000853;28;20152;-69
2022/04/03 02:05:50;;;;;;;3.00;2.58;;;0.80;99.90;;;;;;5018044;28;20148;-69
2022/04/03 02:08:16;;;;;;;3.40;3.10;;;0.80;99.90;;;;;;4999129;28;20046;-69
2022/04/03 02:10:42;;;;;;;3.35;2.60;;;0.80;99.90;;;;;;4996421;28;20512;-69
2022/04/03 02:13:08;;;;;;;2.80;2.00;;;0.70;99.90;;;;;;5015673;28;20080;-69
2022/04/03 02:15:34;;;;;;;2.30;2.00;;;0.70;99.90;;;;;;5015841;28;20049;-69
2022/04/03 02:17:59;;;;;;;3.65;2.53;;;0.70;99.90;;;;;;5017965;28;20368;-69
2022/04/03 02:20:25;;;;;;;6.18;3.17;;;0.70;99.90;;;;;;5015999;28;20065;-69
2022/04/03 02:22:50;;;;;;;2.53;2.13;;;0.70;99.90;;;;;;5015744;28;20144;-69
2022/04/03 02:25:16;;;;;;;3.17;2.00;;;0.60;99.90;;;;;;4998905;28;20046;-69
2022/04/03 02:27:46;;;;;;;3.42;2.30;;;0.60;99.90;;;;;;4976721;28;20057;-69
2022/04/03 02:30:13;;;;;;;1.92;1.80;;;0.60;99.90;;;;;;4977176;28;20769;-69
2022/04/03 02:32:40;;;;;;;4.43;2.88;;;0.70;99.90;;;;;;4976040;28;20765;-68
2022/04/03 02:35:07;;;;;;;2.70;1.75;;;0.70;99.90;;;;;;4977730;28;20038;-69
2022/04/03 02:37:37;;;;;;;4.63;2.38;;;0.80;99.90;;;;;;4976825;28;20058;-69
2022/04/03 02:40:04;;;;;;;2.60;2.42;;;0.90;99.90;;;;;;4977418;28;20505;-69
2022/04/03 02:42:31;;;;;;;3.22;2.00;;;0.90;99.90;;;;;;4977400;28;20042;-69
2022/04/03 02:44:56;;;;;;;3.25;2.28;;;0.90;99.90;;;;;;4976540;28;20371;-69
2022/04/03 02:47:22;;;;;;;3.75;2.22;;;1.00;99.90;;;;;;5013680;28;20088;-69
2022/04/03 02:49:50;;;;;;;3.30;2.67;;;1.10;99.90;;;;;;4993843;28;20054;-69
2022/04/03 02:52:16;;;;;;;2.70;2.20;;;1.10;99.90;;;;;;4995106;28;20129;-69
2022/04/03 02:54:44;;;;;;;3.20;1.88;;;1.10;99.90;;;;;;4997141;28;20073;-67
2022/04/03 02:57:11;;;;;;;5.60;3.22;;;1.30;99.90;;;;;;4995638;28;20077;-67
2022/04/03 02:59:37;;;;;;;3.03;2.60;;;1.30;99.90;;;;;;5012679;28;20041;-67
2022/04/03 03:02:02;;;;;;;3.13;1.70;;;1.30;99.90;;;;;;5017158;28;20142;-67
2022/04/03 03:04:28;;;;;;;3.58;2.40;;;1.40;99.90;;;;;;5014738;28;20052;-67
2022/04/03 03:06:54;;;;;;;2.80;2.00;;;1.50;99.90;;;;;;4983272;28;20058;-67
2022/04/03 03:09:19;;;;;;;2.75;1.98;;;1.50;99.90;;;;;;4975540;28;20054;-66
2022/04/03 03:11:45;;;;;;;2.33;2.08;;;1.50;99.90;;;;;;4974915;28;20050;-67
2022/04/03 03:14:10;;;;;;;3.58;2.08;;;1.60;99.90;;;;;;4977362;28;20436;-67
2022/04/03 03:16:36;;;;;;;3.30;2.10;;;1.60;99.90;;;;;;4977602;28;20054;-67
2022/04/03 03:19:02;;;;;;;5.55;2.67;;;1.60;99.90;;;;;;4976809;28;20046;-67
2022/04/03 03:21:28;;;;;;;3.10;2.58;;;1.60;99.90;;;;;;4975585;28;20130;-66
2022/04/03 03:23:54;;;;;;;4.28;2.90;;;1.60;99.90;;;;;;4975129;28;20441;-66
2022/04/03 03:26:20;;;;;;;2.53;2.00;;;1.70;99.90;;;;;;4975956;28;20085;-67
2022/04/03 03:28:46;;;;;;;3.30;2.22;;;1.60;99.90;;;;;;4975823;28;20074;-66
2022/04/03 03:31:11;;;;;;;3.42;2.17;;;1.60;99.90;;;;;;4976650;28;20257;-66
2022/04/03 03:33:37;;;;;;;2.30;2.05;;;1.70;99.90;;;;;;4976476;28;20413;-66
2022/04/03 03:36:03;;;;;;;2.75;2.55;;;1.70;99.90;;;;;;4977629;28;20436;-66
2022/04/03 03:38:29;;;;;;;4.55;2.33;;;1.70;99.90;;;;;;4976733;28;20161;-67
2022/04/03 03:40:55;;;;;;;2.67;2.47;;;1.80;99.90;;;;;;4975253;28;20481;-67
2022/04/03 03:43:21;;;;;;;2.40;2.20;;;1.70;99.90;;;;;;4976950;28;20053;-67
2022/04/03 03:45:46;;;;;;;2.92;2.40;;;1.70;99.90;;;;;;4987234;28;20111;-67
2022/04/03 03:48:12;;;;;;;3.92;2.25;;;1.80;99.90;;;;;;5014959;28;20812;-67
2022/04/03 03:50:38;;;;;;;2.10;1.90;;;1.70;99.90;;;;;;5016048;28;20551;-69
2022/04/03 03:53:04;;;;;;;2.85;1.90;;;1.80;99.90;;;;;;4984313;28;20057;-66
2022/04/03 03:55:29;;;;;;;3.80;1.90;;;1.90;99.90;;;;;;4980089;28;20057;-66
2022/04/03 03:57:55;;;;;;;3.45;1.80;;;1.90;99.90;;;;;;4983733;28;20796;-65
2022/04/03 04:00:20;;;;;;;3.90;1.95;;;2.00;99.90;;;;;;5017437;28;20164;-64
2022/04/03 04:02:46;;;;;;;1.98;1.77;;;2.00;99.90;;;;;;5019893;28;20808;-64
2022/04/03 04:05:11;;;;;;;2.22;1.50;;;3.10;99.90;;;;;;5017621;28;20042;-65
2022/04/03 04:07:47;;;;;;;1.45;1.35;;;2.10;99.90;;;;;;5019384;28;20052;-65
2022/04/03 04:10:14;;;;;;;1.50;1.40;;;2.10;99.90;;;;;;5030364;28;20060;-66
2022/04/03 04:12:41;;;;;;;1.63;1.52;;;2.10;99.90;;;;;;5000624;28;20068;-67
2022/04/03 04:15:08;;;;;;;2.58;2.17;;;2.20;99.90;;;;;;4982460;28;20054;-68
2022/04/03 04:17:39;;;;;;;1.75;1.52;;;2.20;99.90;;;;;;4982650;28;20078;-69
2022/04/03 04:20:06;;;;;;;2.10;1.92;;;2.20;99.90;;;;;;4981980;28;20073;-69
2022/04/03 04:22:32;;;;;;;3.22;1.92;;;2.10;99.90;;;;;;4999094;28;20049;-70
2022/04/03 04:24:57;;;;;;;1.75;1.65;;;2.10;99.90;;;;;;4988244;28;20045;-70
2022/04/03 04:27:23;;;;;;;8.43;2.08;;;2.10;99.90;;;;;;5002385;28;20146;-70
2022/04/03 04:29:49;;;;;;;2.92;1.90;;;2.10;99.90;;;;;;5019369;28;20057;-70
2022/04/03 04:32:14;;;;;;;2.72;1.52;;;2.10;99.90;;;;;;5001929;28;20053;-70
2022/04/03 04:34:40;;;;;;;1.90;1.77;;;2.10;99.90;;;;;;5002010;28;20582;-70
2022/04/03 04:37:05;;;;;;;1.75;1.60;;;2.10;99.90;;;;;;5000595;28;20416;-71
2022/04/03 04:39:32;;;;;;;2.92;2.17;;;2.10;99.90;;;;;;5000691;28;20050;-71
2022/04/03 04:41:58;;;;;;;1.63;1.30;;;2.10;99.90;;;;;;5000420;28;20166;-71
2022/04/03 04:44:23;;;;;;;3.80;2.00;;;2.00;99.90;;;;;;5019345;28;20116;-71
2022/04/03 04:46:49;;;;;;;2.05;1.92;;;2.00;99.90;;;;;;5004290;28;20140;-71
2022/04/03 04:49:16;;;;;;;3.33;1.55;;;2.00;99.90;;;;;;4980952;28;20050;-71
2022/04/03 04:51:43;;;;;;;2.10;1.83;;;2.00;99.90;;;;;;5005302;28;20049;-71
2022/04/03 04:54:09;;;;;;;3.00;2.67;;;2.00;99.90;;;;;;5019151;28;20048;-71
2022/04/03 04:56:35;;;;;;;3.88;2.25;;;2.00;99.90;;;;;;5019014;28;20493;-71
2022/04/03 04:59:02;;;;;;;1.77;1.67;;;2.10;99.90;;;;;;5011892;28;20044;-71
2022/04/03 05:01:27;;;;;;;2.05;1.85;;;2.10;99.90;;;;;;5020436;28;20049;-71
2022/04/03 05:03:53;;;;;;;4.07;2.40;;;2.10;99.90;;;;;;5020139;28;20075;-71
2022/04/03 05:06:22;;;;;;;2.03;1.88;;;2.10;99.90;;;;;;5038667;28;20102;-71
2022/04/03 05:08:49;;;;;;;2.50;2.30;;;2.00;99.90;;;;;;5038030;28;20048;-71
2022/04/03 05:11:15;;;;;;;2.75;1.98;;;2.00;99.90;;;;;;5000548;28;20160;-71
2022/04/03 05:13:42;;;;;;;3.03;2.10;;;1.90;99.90;;;;;;4999158;28;20408;-71
2022/04/03 05:16:08;;;;;;;3.97;2.20;;;1.90;99.90;;;;;;4981100;28;20060;-71
2022/04/03 05:18:36;;;;;;;2.90;2.10;;;1.80;99.90;;;;;;4998278;28;20862;-71
2022/04/03 05:21:04;;;;;;;4.45;2.03;;;1.80;99.90;;;;;;4996915;28;20100;-71
2022/04/03 05:23:31;;;;;;;2.35;2.15;;;1.70;99.90;;;;;;4979207;28;20041;-71
2022/04/03 05:25:57;;;;;;;1.98;1.73;;;1.70;99.90;;;;;;4977937;28;20499;-71
2022/04/03 05:28:23;;;;;;;2.33;1.80;;;1.60;99.90;;;;;;4978333;28;20099;-71
2022/04/03 05:30:49;;;;;;;2.90;1.88;;;1.60;99.90;;;;;;4978796;28;20580;-71
2022/04/03 05:33:15;;;;;;;3.03;2.63;;;1.60;99.90;;;;;;4977587;28;20662;-71
2022/04/03 05:35:42;;;;;;;2.47;1.92;;;1.50;99.90;;;;;;4977744;28;20057;-71
2022/04/03 05:38:08;;;;;;;3.15;2.08;;;1.50;99.90;;;;;;5007396;28;20041;-71
2022/04/03 05:40:33;;;;;;;4.88;1.92;;;1.50;99.90;;;;;;5014195;28;20073;-72
2022/04/03 05:42:59;;;;;;;3.38;2.05;;;1.40;99.90;;;;;;5014057;28;20160;-71
2022/04/03 05:45:26;;;;;;;2.50;2.30;;;1.40;99.90;;;;;;5000215;28;20069;-71
2022/04/03 05:47:52;;;;;;;2.67;2.15;;;1.30;99.90;;;;;;5035480;28;20049;-71
2022/04/03 05:50:19;;;;;;;2.40;2.20;;;1.40;99.90;;;;;;5032424;28;20110;-71
2022/04/03 05:52:51;;;;;;;4.78;1.90;;;1.40;99.90;;;;;;5012844;28;20128;-71
2022/04/03 05:55:18;;;;;;;4.05;2.30;;;1.30;99.90;;;;;;4995394;28;20050;-70
2022/04/03 05:57:45;;;;;;;3.42;2.13;;;1.40;99.90;;;;;;4993477;28;20057;-71
2022/04/03 06:00:12;;;;;;;2.60;2.17;;;1.40;99.90;;;;;;5014514;28;20041;-71
2022/04/03 06:02:55;;;;;;;2.33;2.13;;;1.50;99.90;;;;;;4995529;28;20052;-72
2022/04/03 06:05:27;;;;;;;5.35;2.70;;;1.60;99.90;;;;;;5013051;28;20042;-71
2022/04/03 06:07:53;;;;;;;3.13;2.05;;;1.70;99.90;;;;;;4993752;28;20495;-72
2022/04/03 06:10:20;;;;;;;4.78;2.58;;;1.80;99.90;;;;;;4994614;28;20060;-73
2022/04/03 06:13:00;;;;;;;3.38;1.90;;;1.90;99.90;;;;;;4992765;28;20564;-73
2022/04/03 06:15:33;;;;;;;2.85;1.90;;;1.90;99.90;;;;;;5012143;28;20043;-73
2022/04/03 06:17:59;;;;;;;3.08;1.90;;;2.00;99.90;;;;;;5013258;28;20077;-73
2022/04/03 06:20:25;;;;;;;3.85;2.38;;;2.00;99.90;;;;;;5017892;28;20181;-73
2022/04/03 06:22:51;;;;;;;2.78;2.08;;;3.60;99.90;;;;;;5013367;28;20477;-73
2022/04/03 06:25:17;;;;;;;4.03;2.38;;;2.10;99.90;;;;;;5012928;28;20033;-73
2022/04/03 06:27:43;;;;;;;4.55;3.17;;;2.10;99.90;;;;;;4994131;28;20496;-73
2022/04/03 06:30:09;;;;;;;2.83;2.25;;;2.30;99.90;;;;;;4994831;28;20101;-73
2022/04/03 06:32:35;;;;;;;2.25;1.73;;;2.30;99.90;;;;;;4996278;28;20195;-73
2022/04/03 06:35:00;;;;;;;2.80;2.30;;;2.40;99.90;;;;;;4996610;28;20045;-73
2022/04/03 06:37:26;;;;;;;3.85;2.53;;;2.40;99.90;;;;;;5013297;28;20136;-72
2022/04/03 06:39:52;;;;;;;3.03;2.20;;;2.40;99.90;;;;;;5011759;28;20041;-72
2022/04/03 06:42:18;;;;;;;3.67;2.70;;;2.50;99.90;;;;;;5012165;28;20060;-72
2022/04/03 06:44:43;;;;;;;2.42;1.92;;;2.60;99.90;;;;;;5013522;28;20061;-73
2022/04/03 06:47:10;;;;;;;3.45;2.22;;;2.80;99.90;;;;;;5013173;28;20133;-73
2022/04/03 06:49:36;;;;;;;2.67;2.15;;;2.90;99.90;;;;;;5012492;28;20130;-74
2022/04/03 06:52:02;;;;;;;2.10;1.95;;;3.00;99.90;;;;;;4993774;28;20548;-74
2022/04/03 06:54:27;;;;;;;3.40;1.80;;;3.00;99.90;;;;;;4992611;28;20828;-74
2022/04/03 06:56:53;;;;;;;1.73;1.63;;;3.20;99.90;;;;;;4992087;28;20191;-74
2022/04/03 06:59:19;;;;;;;2.05;1.85;;;3.30;99.90;;;;;;5011056;28;20815;-74
2022/04/03 07:01:45;;;;;;;3.53;1.70;;;3.40;99.90;;;;;;4992252;28;20045;-74
2022/04/03 07:04:10;;;;;;;2.58;2.33;;;3.50;99.90;;;;;;4992786;28;20044;-74
2022/04/03 07:06:36;;;;;;;3.20;1.50;;;3.60;99.90;;;;;;5010700;28;20042;-74
2022/04/03 07:09:02;;;;;;;2.58;2.38;;;3.60;99.90;;;;;;5011229;28;20063;-74
2022/04/03 07:11:27;;;;;;;1.85;1.52;;;3.80;99.90;;;;;;4990704;28;20053;-75
2022/04/03 07:13:53;;;;;;;4.65;1.63;;;4.00;99.90;;;;;;4993844;28;20188;-75
2022/04/03 07:16:18;;;;;;;2.25;1.63;;;4.00;99.90;;;;;;4994143;28;20187;-75
2022/04/03 07:18:44;;;;;;;2.47;1.77;;;4.10;99.90;;;;;;4993303;28;20045;-75
2022/04/03 07:21:09;;;;;;;2.83;1.90;;;4.10;99.90;;;;;;4994954;28;20146;-75
2022/04/03 07:23:35;;;;;;;2.33;2.10;;;4.10;99.90;;;;;;4993230;28;20084;-75
2022/04/03 07:26:01;;;;;;;1.65;1.30;;;4.30;99.90;;;;;;5011482;28;20124;-75
2022/04/03 07:28:26;;;;;;;5.13;2.25;;;4.50;99.90;;;;;;4993386;28;20037;-76
2022/04/03 07:30:52;;;;;;;2.15;1.58;;;4.80;99.90;;;;;;4992436;28;20077;-77
2022/04/03 07:33:20;;;;;;;5.57;2.08;;;6.00;99.90;;;;;;5011169;28;20048;-77
2022/04/03 07:35:47;;;;;;;2.83;1.95;;;7.50;99.90;;;;;;5011349;28;20124;-77
2022/04/03 07:38:12;;;;;;;2.88;2.13;;;9.00;99.90;;;;;;4992506;28;20049;-78
2022/04/03 07:40:38;;;;;;;3.72;2.20;;;10.00;99.90;;;;;;5012675;28;20049;-78
2022/04/03 07:43:03;;;;;;;2.30;1.73;;;10.60;99.90;;;;;;4999316;28;20050;-78
2022/04/03 07:45:29;;;;;;;2.83;1.60;;;11.00;99.90;;;;;;5014534;28;20044;-79
2022/04/03 07:47:54;;;;;;;2.40;1.98;;;11.50;99.90;;;;;;5012461;28;20528;-80
2022/04/03 07:50:20;;;;;;;2.00;1.88;;;11.90;99.90;;;;;;4994387;28;20063;-80
2022/04/03 07:52:47;;;;;;;3.47;1.55;;;12.40;99.90;;;;;;4996564;28;20208;-79
2022/04/03 07:55:13;;;;;;;3.20;1.25;;;12.80;99.90;;;;;;4994559;28;20503;-78
2022/04/03 07:57:39;;;;;;;4.55;1.63;;;12.80;99.90;;;;;;5012166;28;20030;-79
2022/04/03 08:00:10;;;;;;;1.33;1.20;;;13.10;99.90;;;;;;5013753;28;20218;-79
2022/04/03 08:02:37;;;;;;;2.63;1.20;;;13.40;99.90;;;;;;5012441;28;20806;-78
2022/04/03 08:05:05;;;;;;;2.20;1.30;;;13.70;99.90;;;;;;5011788;28;20045;-78
2022/04/03 08:07:48;;;;;;;1.80;1.13;;;14.20;99.90;;;;;;5011812;28;20045;-78
2022/04/03 08:10:20;;;;;;;2.90;0.90;;;14.40;92.90;;;;;;4992951;28;20068;-77
2022/04/03 08:12:48;;;;;;;2.15;0.77;;;14.00;99.40;;;;;;5008769;28;20049;-77
2022/04/03 08:15:16;;;;;;;1.20;0.85;;;13.90;99.90;;;;;;4992825;28;20054;-78
2022/04/03 08:17:42;;;;;;;0.88;0.88;;;13.80;99.90;;;;;;5014216;28;20056;-77
2022/04/03 08:20:18;;;;;;;0.75;0.75;;;13.50;99.90;;;;;;4995628;28;20046;-79
2022/04/03 08:22:45;;;;;;;0.70;0.70;;;13.20;94.30;;;;;;4996067;28;20737;-80
2022/04/03 08:25:15;;;;;;;0.77;0.77;;;13.00;99.90;;;;;;5014704;28;20165;-81
2022/04/03 08:27:54;;;;;;;0.85;0.70;;;13.10;99.90;;;;;;5015195;28;20049;-81
2022/04/03 08:30:26;;;;;;;0.98;0.88;;;12.30;92.00;;;;;;4997074;28;20061;-83
2022/04/03 08:32:52;;;;;;;1.40;0.90;;;12.70;93.70;;;;;;5015809;28;20053;-77
2022/04/03 08:35:20;;;;;;;1.05;0.90;;;12.70;99.90;;;;;;4997160;28;20037;-77
2022/04/03 08:37:47;;;;;;;1.02;0.95;;;12.80;99.90;;;;;;5016751;28;20053;-78
2022/04/03 08:40:13;;;;;;;1.92;1.08;;;12.90;99.90;;;;;;5001113;28;20045;-77
2022/04/03 08:42:40;;;;;;;3.22;0.88;;;13.50;99.90;;;;;;5000023;28;20151;-77
2022/04/03 08:45:11;;;;;;;1.95;0.90;;;14.00;99.30;;;;;;5019732;28;20175;-78
2022/04/03 08:47:48;;;;;;;1.42;0.90;;;14.70;98.40;;;;;;5021850;28;20048;-80
2022/04/03 08:50:15;;;;;;;1.48;0.80;;;14.90;90.80;;;;;;4998126;28;20061;-76
2022/04/03 08:52:49;;;;;;;1.38;0.80;;;15.40;97.80;;;;;;5001086;28;20057;-77
2022/04/03 08:55:15;;;;;;;2.80;0.82;;;15.60;91.80;;;;;;4665721;28;10000257;-78
2022/04/03 08:57:42;;;;;;;0.98;0.85;;;14.50;95.30;;;;;;4998437;28;20049;-78
2022/04/03 09:00:09;;;;;;;1.00;0.90;;;14.50;93.90;;;;;;5016224;28;20041;-76
2022/04/03 09:02:34;;;;;;;2.55;1.20;;;14.50;94.00;;;;;;5014650;28;20049;-80
2022/04/03 09:05:00;;;;;;;1.30;0.90;;;14.50;93.60;;;;;;5014817;28;20042;-77
2022/04/03 09:07:26;;;;;;;2.03;0.85;;;14.60;94.30;;;;;;4993469;28;20048;-77
2022/04/03 09:10:09;;;;;;;1.23;1.00;;;13.80;95.70;;;;;;5010690;28;20137;-77
2022/04/03 09:12:48;;;;;;;2.95;0.70;;;11.90;87.70;;;;;;5011403;28;20049;-77
2022/04/03 09:15:19;;;;;;;1.67;1.02;;;11.00;94.00;;;;;;5012897;28;20057;-77
2022/04/03 09:17:49;;;;;;;1.63;1.30;;;10.60;98.80;;;;;;4996132;28;20929;-78
2022/04/03 09:20:20;;;;;;;1.48;1.15;;;11.30;96.80;;;;;;5013045;28;20037;-77
2022/04/03 09:22:49;;;;;;;1.70;0.88;;;11.00;94.80;;;;;;5013994;28;20054;-78
2022/04/03 09:25:17;;;;;;;3.90;0.90;;;10.70;96.20;;;;;;5013566;28;20126;-79
2022/04/03 09:27:49;;;;;;;1.25;0.95;;;11.00;96.80;;;;;;5015731;28;20057;-79
2022/04/03 09:30:16;;;;;;;0.65;0.60;;;10.80;96.00;;;;;;5004637;28;20049;-79
2022/04/03 09:32:54;;;;;;;0.90;0.80;;;10.10;94.90;;;;;;5013723;28;20049;-80
2022/04/03 09:35:24;;;;;;;1.05;0.98;;;9.40;94.70;;;;;;5015529;28;20049;-79
2022/04/03 09:38:12;;;;;;;1.00;0.90;;;9.50;98.00;;;;;;5014854;28;20485;-80
2022/04/03 09:40:42;;;;;;;1.23;1.00;;;11.10;93.90;;;;;;5013635;28;20049;-80
2022/04/03 09:43:28;;;;;;;1.83;0.80;;;12.80;93.90;;;;;;5012990;28;20057;-80
2022/04/03 09:45:56;;;;;;;2.50;0.80;;;14.10;90.70;;;;;;5021364;28;20057;-80
2022/04/03 09:48:29;;;;;;;1.95;0.98;;;13.10;92.40;;;;;;5035559;28;20083;-80
2022/04/03 09:50:59;;;;;;;2.60;1.83;;;12.20;92.50;;;;;;5016340;28;20049;-81
2022/04/03 09:53:27;;;;;;;0.73;0.73;;;11.30;92.20;;;;;;4994657;28;20046;-81
2022/04/03 09:55:53;;;;;;;1.05;0.82;;;10.60;93.80;;;;;;4993713;28;20049;-80
2022/04/03 09:58:18;;;;;;;3.35;0.85;;;9.90;90.90;;;;;;5017424;28;20076;-81
2022/04/03 10:00:44;;;;;;;3.78;1.00;;;9.50;95.80;;;;;;5007661;28;20057;-81
2022/04/03 10:03:12;;;;;;;5.70;1.20;;;9.30;97.00;;;;;;4996961;28;20056;-81
2022/04/03 10:05:38;;;;;;;2.30;1.42;;;9.30;96.70;;;;;;5014481;28;20380;-81
2022/04/03 10:08:05;;;;;;;5.30;1.00;;;10.60;96.30;;;;;;4996362;28;20081;-79
2022/04/03 10:10:33;;;;;;;3.13;0.95;;;12.10;92.00;;;;;;5013568;28;20060;-82
2022/04/03 10:12:59;;;;;;;1.45;0.68;;;12.20;88.90;;;;;;5014000;28;20489;-82
2022/04/03 10:15:27;;;;;;;3.88;0.80;;;12.00;91.30;;;;;;4996267;28;20081;-80
2022/04/03 10:17:53;;;;;;;1.27;0.70;;;13.20;91.50;;;;;;5014027;28;20556;-81
2022/04/03 10:20:19;;;;;;;2.00;0.70;;;13.90;92.20;;;;;;5012341;28;20042;-81
2022/04/03 10:22:49;;;;;;;0.82;0.50;;;14.40;88.50;;;;;;5013177;28;20049;-83
2022/04/03 10:25:23;;;;;;;1.15;0.90;;;14.30;81.00;;;;;;4995359;28;20038;-82
2022/04/03 10:27:50;;;;;;;1.48;1.08;;;14.20;82.30;;;;;;5010686;28;20049;-80
2022/04/03 10:30:17;;;;;;;3.05;0.70;;;14.30;79.10;;;;;;5012747;28;20133;-82
2022/04/03 10:32:58;;;;;;;0.93;0.80;;;13.80;69.50;;;;;;5012347;28;20771;-80
2022/04/03 10:35:24;;;;;;;0.60;0.60;;;13.50;71.90;;;;;;5012945;28;20095;-82
2022/04/03 10:38:00;;;;;;;0.75;0.75;;;13.70;74.10;;;;;;4996810;28;20148;-81
2022/04/03 10:40:30;;;;;;;1.85;0.30;;;14.40;77.20;;;;;;5014522;28;20042;-80
2022/04/03 10:43:05;;;;;;;1.42;0.93;;;14.80;74.10;;;;;;5015710;28;20049;-81
2022/04/03 10:45:36;;;;;;;3.50;0.63;;;14.30;60.60;;;;;;5015066;28;20048;-81
2022/04/03 10:48:31;;;;;;;1.52;1.17;;;14.70;65.70;;;;;;5013152;28;20049;-80
2022/04/03 10:51:11;;;;;;;1.38;0.55;;;14.50;68.00;;;;;;5001061;28;20053;-80
2022/04/03 10:53:43;;;;;;;1.70;0.70;;;12.00;70.80;;;;;;5014478;28;20037;-79
2022/04/03 10:56:24;;;;;;;1.83;0.80;;;11.30;81.80;;;;;;4994933;28;20076;-78
2022/04/03 10:58:52;;;;;;;1.90;0.98;;;10.70;82.40;;;;;;4995097;28;20049;-78
2022/04/03 11:01:27;;;;;;;2.45;0.80;;;10.10;83.50;;;;;;5012872;28;20038;-77
2022/04/03 11:03:58;;;;;;;2.38;1.20;;;9.80;87.80;;;;;;4996021;28;20107;-77
2022/04/03 11:06:30;;;;;;;3.30;1.13;;;9.60;92.00;;;;;;5014361;28;20049;-77
2022/04/03 11:09:11;;;;;;;1.38;0.95;;;9.60;93.20;;;;;;4995531;28;20057;-77
2022/04/03 11:11:39;;;;;;;1.15;1.02;;;9.70;91.80;;;;;;5008833;28;20603;-76
2022/04/03 11:14:31;;;;;;;2.15;1.20;;;9.90;92.40;;;;;;5016968;28;20048;-77
2022/04/03 11:16:57;;;;;;;1.65;0.70;;;10.20;91.10;;;;;;5032975;28;20560;-75
2022/04/03 11:19:55;;;;;;;4.10;0.80;;;10.50;89.90;;;;;;5032699;28;20049;-76
2022/04/03 11:22:21;;;;;;;0.80;0.65;;;10.40;85.30;;;;;;4995776;28;20061;-77
2022/04/03 11:24:48;;;;;;;1.63;0.70;;;10.00;83.50;;;;;;4995534;28;20409;-76
2022/04/03 11:27:14;;;;;;;4.43;1.70;;;9.70;88.30;;;;;;5012842;28;20404;-74
2022/04/03 11:29:40;;;;;;;1.30;1.00;;;9.50;92.50;;;;;;4994715;28;20045;-72
2022/04/03 11:32:08;;;;;;;1.38;0.65;;;9.30;93.80;;;;;;4994774;28;20115;-73
2022/04/03 11:34:34;;;;;;;2.65;1.40;;;9.10;95.40;;;;;;4996219;28;20062;-74
2022/04/03 11:37:02;;;;;;;2.35;1.10;;;8.80;96.90;;;;;;4995318;28;20060;-73
2022/04/03 11:39:32;;;;;;;0.98;0.98;;;8.70;99.00;;;;;;4995107;28;20631;-73
2022/04/03 11:42:00;;;;;;;2.65;1.08;;;8.40;99.90;;;;;;5013537;28;20077;-73
2022/04/03 11:44:26;;;;;;;2.20;1.13;;;8.20;99.90;;;;;;5013695;28;20485;-73
2022/04/03 11:46:51;;;;;;;2.47;1.52;;;8.20;99.90;;;;;;4998811;28;20148;-72
2022/04/03 11:49:28;;;;;;;1.10;1.00;;;8.00;99.90;;;;;;4994702;28;20049;-73
2022/04/03 11:51:57;;;;;;;1.75;1.65;;;7.90;99.90;;;;;;5011808;28;20768;-73
2022/04/03 11:54:25;;;;;;;0.82;0.82;;;7.90;99.90;;;;;;5013485;28;20050;-73
2022/04/03 11:56:57;;;;;;;1.20;1.10;;;7.90;99.90;;;;;;5013929;28;20050;-72
2022/04/03 11:59:23;;;;;;;1.85;1.38;;;8.00;99.90;;;;;;5027376;28;20531;-72
2022/04/03 12:01:52;;;;;;;1.33;1.13;;;8.20;99.90;;;;;;5013795;28;20489;-71
2022/04/03 12:04:19;;;;;;;1.52;0.80;;;8.60;99.90;;;;;;5013705;28;20048;-71
2022/04/03 12:06:50;;;;;;;1.00;0.88;;;8.90;99.90;;;;;;4994181;28;20248;-71
2022/04/03 12:09:21;;;;;;;2.97;0.98;;;9.00;99.90;;;;;;4995884;28;20053;-71
2022/04/03 12:11:48;;;;;;;1.65;1.40;;;9.10;99.90;;;;;;5009734;28;20104;-71
2022/04/03 12:14:31;;;;;;;1.67;1.10;;;8.90;99.80;;;;;;5018683;28;20053;-72
2022/04/03 12:17:02;;;;;;;0.90;0.90;;;9.00;99.50;;;;;;5038125;28;20060;-72
2022/04/03 12:19:30;;;;;;;1.83;1.23;;;8.90;99.90;;;;;;5019474;28;20053;-72
2022/04/03 12:22:00;;;;;;;3.30;1.20;;;8.70;99.90;;;;;;5037861;28;20037;-71
2022/04/03 12:24:30;;;;;;;2.03;0.80;;;8.70;99.90;;;;;;5032794;28;20049;-71
2022/04/03 12:27:15;;;;;;;1.50;0.93;;;8.50;99.10;;;;;;4980387;28;20057;-71
2022/04/03 12:29:43;;;;;;;3.05;1.10;;;8.40;97.80;;;;;;4998428;28;20054;-71
2022/04/03 12:32:29;;;;;;;0.47;0.45;;;8.40;99.70;;;;;;4997990;28;20799;-71
2022/04/03 12:34:55;;;;;;;0.57;0.57;;;8.40;98.30;;;;;;4997164;28;20049;-70
2022/04/03 12:37:21;;;;;;;1.75;0.57;;;8.50;98.50;;;;;;4997817;28;20042;-70
2022/04/03 12:39:50;;;;;;;0.40;0.40;;;8.50;98.90;;;;;;4980756;28;20069;-70
2022/04/03 12:42:29;;;;;;;0.85;0.50;;;8.50;97.40;;;;;;4979120;28;20038;-70
2022/04/03 12:45:00;;;;;;;2.38;0.95;;;8.60;99.30;;;;;;5005348;28;20042;-71
2022/04/03 12:47:30;;;;;;;1.85;0.50;;;8.70;98.10;;;;;;4999170;28;20582;-71
2022/04/03 12:50:05;;;;;;;0.32;0.32;;;8.80;98.00;;;;;;4997318;28;20095;-71
2022/04/03 12:52:46;;;;;;;0.95;0.68;;;9.00;97.50;;;;;;5015557;28;20133;-71
2022/04/03 13:00:48;;;;;;;0.50;0.50;;;9.70;95.50;;;;;;5014322;28;20133;-71
2022/04/03 13:03:29;;;;;;;0.88;0.60;;;10.10;96.40;;;;;;5015335;28;20161;-72
2022/04/03 13:05:59;;;;;;;1.05;0.98;;;10.50;94.20;;;;;;4999093;28;20126;-72